sensor_id;sensor_type;location;lat;lon;timestamp;temperature;humidity
21805;DHT22;11064;47.102;15.452;2023-04-01T00:01:13;5.80;99.90
21805;DHT22;11064;47.102;15.452;2023-04-01T00:03:40;5.80;99.90
21805;DHT22;11064;47.102;15.452;2023-04-01T00:06:06;5.80;99.90
21805;DHT22;11064;47.102;15.452;2023-04-01T00:08:32;5.80;99.90
21805;DHT22;11064;47.102;15.452;2023-04-01T00:10:58;5.80;99.90
21805;DHT22;11064;47.102;15.452;2023-04-01T00:13:25;5.80;99.90
21805;DHT22;11064;47.102;15.452;2023-04-01T00:15:52;5.80;99.90
21805;DHT22;11064;47.102;15.452;2023-04-01T00:18:18;5.80;99.90
21805;DHT22;11064;47.102;15.452;2023-04-01T00:20:49;5.80;99.90
21805;DHT22;11064;47.102;15.452;2023-04-01T00:23:16;5.90;99.90
21805;DHT22;11064;47.102;15.452;2023-04-01T00:25:42;5.90;99.90
21805;DHT22;11064;47.102;15.452;2023-04-01T00:28:08;5.80;99.90
21805;DHT22;11064;47.102;15.452;2023-04-01T00:30:35;5.80;99.90
21805;DHT22;11064;47.102;15.452;2023-04-01T00:33:03;5.80;99.90
21805;DHT22;11064;47.102;15.452;2023-04-01T00:35:29;5.80;99.90
21805;DHT22;11064;47.102;15.452;2023-04-01T00:37:55;5.80;99.90
21805;DHT22;11064;47.102;15.452;2023-04-01T00:40:38;5.80;99.90
21805;DHT22;11064;47.102;15.452;2023-04-01T00:43:14;5.70;99.90
21805;DHT22;11064;47.102;15.452;2023-04-01T00:45:42;5.70;99.90
21805;DHT22;11064;47.102;15.452;2023-04-01T00:48:31;5.70;99.90
21805;DHT22;11064;47.102;15.452;2023-04-01T00:51:01;5.70;99.90
21805;DHT22;11064;47.102;15.452;2023-04-01T00:53:30;5.60;99.90
21805;DHT22;11064;47.102;15.452;2023-04-01T00:56:04;5.50;99.90
21805;DHT22;11064;47.102;15.452;2023-04-01T00:58:34;5.50;99.90
21805;DHT22;11064;47.102;15.452;2023-04-01T01:01:01;5.40;99.90
21805;DHT22;11064;47.102;15.452;2023-04-01T01:03:27;5.40;99.90
21805;DHT22;11064;47.102;15.452;2023-04-01T01:11:42;5.30;99.90
21805;DHT22;11064;47.102;15.452;2023-04-01T01:14:32;5.30;99.90
21805;DHT22;11064;47.102;15.452;2023-04-01T01:17:23;5.20;99.90
21805;DHT22;11064;47.102;15.452;2023-04-01T01:25:38;5.30;99.90
21805;DHT22;11064;47.102;15.452;2023-04-01T01:31:19;5.20;99.90
21805;DHT22;11064;47.102;15.452;2023-04-01T01:34:42;5.00;99.90
21805;DHT22;11064;47.102;15.452;2023-04-01T01:37:18;5.00;99.90
21805;DHT22;11064;47.102;15.452;2023-04-01T01:39:51;5.00;99.90
21805;DHT22;11064;47.102;15.452;2023-04-01T01:42:18;5.00;99.90
21805;DHT22;11064;47.102;15.452;2023-04-01T01:44:47;5.00;99.90
21805;DHT22;11064;47.102;15.452;2023-04-01T01:47:16;5.00;99.90
21805;DHT22;11064;47.102;15.452;2023-04-01T01:49:43;5.00;99.90
21805;DHT22;11064;47.102;15.452;2023-04-01T01:52:12;5.00;99.90
21805;DHT22;11064;47.102;15.452;2023-04-01T01:54:54;5.10;99.90
21805;DHT22;11064;47.102;15.452;2023-04-01T01:57:33;5.00;99.90
21805;DHT22;11064;47.102;15.452;2023-04-01T02:00:10;5.10;99.90
21805;DHT22;11064;47.102;15.452;2023-04-01T02:02:46;5.10;99.90
21805;DHT22;11064;47.102;15.452;2023-04-01T02:05:17;5.10;99.90
21805;DHT22;11064;47.102;15.452;2023-04-01T02:07:49;5.10;99.90
21805;DHT22;11064;47.102;15.452;2023-04-01T02:10:21;5.10;99.90
21805;DHT22;11064;47.102;15.452;2023-04-01T02:12:49;5.10;99.90
21805;DHT22;11064;47.102;15.452;2023-04-01T02:15:17;5.10;99.90
21805;DHT22;11064;47.102;15.452;2023-04-01T02:17:44;5.10;99.90
21805;DHT22;11064;47.102;15.452;2023-04-01T02:20:16;5.10;99.90
21805;DHT22;11064;47.102;15.452;2023-04-01T02:22:52;5.20;99.90
21805;DHT22;11064;47.102;15.452;2023-04-01T02:25:24;5.10;99.90
21805;DHT22;11064;47.102;15.452;2023-04-01T02:27:51;5.10;99.90
21805;DHT22;11064;47.102;15.452;2023-04-01T02:30:19;5.20;99.90
21805;DHT22;11064;47.102;15.452;2023-04-01T02:32:46;5.10;99.90
21805;DHT22;11064;47.102;15.452;2023-04-01T02:35:14;5.10;99.90
21805;DHT22;11064;47.102;15.452;2023-04-01T02:37:42;5.10;99.90
21805;DHT22;11064;47.102;15.452;2023-04-01T02:40:12;5.00;99.90
21805;DHT22;11064;47.102;15.452;2023-04-01T02:42:38;5.00;99.90
21805;DHT22;11064;47.102;15.452;2023-04-01T02:45:05;5.00;99.90
21805;DHT22;11064;47.102;15.452;2023-04-01T02:47:32;5.10;99.90
21805;DHT22;11064;47.102;15.452;2023-04-01T02:49:58;5.10;99.90
21805;DHT22;11064;47.102;15.452;2023-04-01T02:52:24;5.00;99.90
21805;DHT22;11064;47.102;15.452;2023-04-01T02:54:50;5.00;99.90
21805;DHT22;11064;47.102;15.452;2023-04-01T02:57:16;5.10;99.90
21805;DHT22;11064;47.102;15.452;2023-04-01T02:59:42;5.10;99.90
21805;DHT22;11064;47.102;15.452;2023-04-01T03:02:08;5.10;99.90
21805;DHT22;11064;47.102;15.452;2023-04-01T03:04:34;5.10;99.90
21805;DHT22;11064;47.102;15.452;2023-04-01T03:07:00;5.10;99.90
21805;DHT22;11064;47.102;15.452;2023-04-01T03:09:26;5.20;99.90
21805;DHT22;11064;47.102;15.452;2023-04-01T03:11:51;5.20;99.90
21805;DHT22;11064;47.102;15.452;2023-04-01T03:14:17;5.20;99.90
21805;DHT22;11064;47.102;15.452;2023-04-01T03:16:43;5.10;99.90
21805;DHT22;11064;47.102;15.452;2023-04-01T03:19:09;5.20;99.90
21805;DHT22;11064;47.102;15.452;2023-04-01T03:21:35;5.20;99.90
21805;DHT22;11064;47.102;15.452;2023-04-01T03:24:01;5.20;99.90
21805;DHT22;11064;47.102;15.452;2023-04-01T03:26:27;5.20;99.90
21805;DHT22;11064;47.102;15.452;2023-04-01T03:28:53;5.20;99.90
21805;DHT22;11064;47.102;15.452;2023-04-01T03:31:19;5.10;99.90
21805;DHT22;11064;47.102;15.452;2023-04-01T03:33:45;5.20;99.90
21805;DHT22;11064;47.102;15.452;2023-04-01T03:36:11;5.20;99.90
21805;DHT22;11064;47.102;15.452;2023-04-01T03:38:42;5.20;99.90
21805;DHT22;11064;47.102;15.452;2023-04-01T03:41:15;5.20;99.90
21805;DHT22;11064;47.102;15.452;2023-04-01T03:43:41;5.20;99.90
21805;DHT22;11064;47.102;15.452;2023-04-01T03:46:07;5.20;99.90
21805;DHT22;11064;47.102;15.452;2023-04-01T03:48:33;5.20;99.90
21805;DHT22;11064;47.102;15.452;2023-04-01T03:50:59;5.20;99.90
21805;DHT22;11064;47.102;15.452;2023-04-01T03:53:25;5.20;99.90
21805;DHT22;11064;47.102;15.452;2023-04-01T03:55:53;5.20;99.90
21805;DHT22;11064;47.102;15.452;2023-04-01T03:58:19;5.20;99.90
21805;DHT22;11064;47.102;15.452;2023-04-01T04:00:45;5.20;99.90
21805;DHT22;11064;47.102;15.452;2023-04-01T04:03:11;5.20;99.90
21805;DHT22;11064;47.102;15.452;2023-04-01T04:05:37;5.30;99.90
21805;DHT22;11064;47.102;15.452;2023-04-01T04:08:03;5.30;99.90
21805;DHT22;11064;47.102;15.452;2023-04-01T04:10:29;5.30;99.90
21805;DHT22;11064;47.102;15.452;2023-04-01T04:12:56;5.40;99.90
21805;DHT22;11064;47.102;15.452;2023-04-01T04:15:22;5.40;99.90
21805;DHT22;11064;47.102;15.452;2023-04-01T04:17:48;5.30;99.90
21805;DHT22;11064;47.102;15.452;2023-04-01T04:20:14;5.20;99.90
21805;DHT22;11064;47.102;15.452;2023-04-01T04:22:40;5.30;99.90
21805;DHT22;11064;47.102;15.452;2023-04-01T04:25:06;5.30;99.90
21805;DHT22;11064;47.102;15.452;2023-04-01T04:27:33;5.20;99.90
21805;DHT22;11064;47.102;15.452;2023-04-01T04:29:59;5.20;99.90
21805;DHT22;11064;47.102;15.452;2023-04-01T04:32:25;5.20;99.90
21805;DHT22;11064;47.102;15.452;2023-04-01T04:34:50;5.10;99.90
21805;DHT22;11064;47.102;15.452;2023-04-01T04:37:16;5.10;99.90
21805;DHT22;11064;47.102;15.452;2023-04-01T04:39:42;5.00;99.90
21805;DHT22;11064;47.102;15.452;2023-04-01T04:42:08;5.00;99.90
21805;DHT22;11064;47.102;15.452;2023-04-01T04:44:34;4.90;99.90
21805;DHT22;11064;47.102;15.452;2023-04-01T05:02:32;5.10;99.90
21805;DHT22;11064;47.102;15.452;2023-04-01T05:04:57;5.20;99.90
21805;DHT22;11064;47.102;15.452;2023-04-01T05:07:23;5.30;99.90
21805;DHT22;11064;47.102;15.452;2023-04-01T05:09:49;5.40;99.90
21805;DHT22;11064;47.102;15.452;2023-04-01T05:12:15;5.50;99.90
21805;DHT22;11064;47.102;15.452;2023-04-01T05:14:41;5.50;99.90
21805;DHT22;11064;47.102;15.452;2023-04-01T05:17:11;5.60;99.90
21805;DHT22;11064;47.102;15.452;2023-04-01T05:19:37;5.60;99.90
21805;DHT22;11064;47.102;15.452;2023-04-01T05:22:03;5.70;99.90
21805;DHT22;11064;47.102;15.452;2023-04-01T05:24:30;5.70;99.90
21805;DHT22;11064;47.102;15.452;2023-04-01T05:26:56;5.80;99.90
21805;DHT22;11064;47.102;15.452;2023-04-01T05:29:24;5.80;99.90
21805;DHT22;11064;47.102;15.452;2023-04-01T05:31:50;5.80;99.90
21805;DHT22;11064;47.102;15.452;2023-04-01T05:34:16;5.80;99.90
21805;DHT22;11064;47.102;15.452;2023-04-01T05:36:42;5.90;99.90
21805;DHT22;11064;47.102;15.452;2023-04-01T05:39:09;5.80;99.90
21805;DHT22;11064;47.102;15.452;2023-04-01T05:41:35;5.90;99.90
21805;DHT22;11064;47.102;15.452;2023-04-01T05:44:02;5.90;99.90
21805;DHT22;11064;47.102;15.452;2023-04-01T05:46:28;5.90;99.90
21805;DHT22;11064;47.102;15.452;2023-04-01T05:48:54;5.90;99.90
21805;DHT22;11064;47.102;15.452;2023-04-01T05:51:20;5.90;99.90
21805;DHT22;11064;47.102;15.452;2023-04-01T05:53:46;6.00;99.90
21805;DHT22;11064;47.102;15.452;2023-04-01T05:56:12;6.10;99.90
21805;DHT22;11064;47.102;15.452;2023-04-01T05:58:39;6.10;99.90
21805;DHT22;11064;47.102;15.452;2023-04-01T06:01:07;6.20;99.90
21805;DHT22;11064;47.102;15.452;2023-04-01T06:03:34;6.30;99.90
21805;DHT22;11064;47.102;15.452;2023-04-01T06:06:00;6.40;99.90
21805;DHT22;11064;47.102;15.452;2023-04-01T06:08:27;6.50;99.90
21805;DHT22;11064;47.102;15.452;2023-04-01T06:11:16;6.60;99.90
21805;DHT22;11064;47.102;15.452;2023-04-01T06:14:17;6.60;99.90
21805;DHT22;11064;47.102;15.452;2023-04-01T06:17:37;6.70;99.90
21805;DHT22;11064;47.102;15.452;2023-04-01T06:19:41;6.80;99.90
21805;DHT22;11064;47.102;15.452;2023-04-01T06:31:14;7.40;99.90
21805;DHT22;11064;47.102;15.452;2023-04-01T06:34:06;7.50;99.90
21805;DHT22;11064;47.102;15.452;2023-04-01T06:36:42;8.00;99.90
21805;DHT22;11064;47.102;15.452;2023-04-01T06:44:49;8.80;99.90
21805;DHT22;11064;47.102;15.452;2023-04-01T06:47:35;8.90;99.90
21805;DHT22;11064;47.102;15.452;2023-04-01T06:55:43;9.20;99.90
21805;DHT22;11064;47.102;15.452;2023-04-01T06:58:21;9.30;99.90
21805;DHT22;11064;47.102;15.452;2023-04-01T07:00:59;9.30;99.90
21805;DHT22;11064;47.102;15.452;2023-04-01T07:03:35;9.60;99.90
21805;DHT22;11064;47.102;15.452;2023-04-01T07:06:09;9.70;99.90
21805;DHT22;11064;47.102;15.452;2023-04-01T07:08:40;10.00;99.90
21805;DHT22;11064;47.102;15.452;2023-04-01T07:11:10;10.20;99.90
21805;DHT22;11064;47.102;15.452;2023-04-01T07:13:45;10.50;99.90
21805;DHT22;11064;47.102;15.452;2023-04-01T07:19:05;11.00;99.90
21805;DHT22;11064;47.102;15.452;2023-04-01T07:24:16;11.50;99.90
21805;DHT22;11064;47.102;15.452;2023-04-01T07:26:43;12.00;99.90
21805;DHT22;11064;47.102;15.452;2023-04-01T07:29:11;12.30;99.90
21805;DHT22;11064;47.102;15.452;2023-04-01T07:36:46;12.40;99.90
21805;DHT22;11064;47.102;15.452;2023-04-01T07:50:26;12.00;99.90
21805;DHT22;11064;47.102;15.452;2023-04-01T07:53:14;12.30;99.90
21805;DHT22;11064;47.102;15.452;2023-04-01T08:01:17;12.50;99.00
21805;DHT22;11064;47.102;15.452;2023-04-01T08:10:20;13.40;95.60
21805;DHT22;11064;47.102;15.452;2023-04-01T08:15:54;13.60;95.20
21805;DHT22;11064;47.102;15.452;2023-04-01T08:18:46;14.00;94.70
21805;DHT22;11064;47.102;15.452;2023-04-01T08:21:28;14.40;92.90
21805;DHT22;11064;47.102;15.452;2023-04-01T08:23:58;15.10;90.70
21805;DHT22;11064;47.102;15.452;2023-04-01T08:26:35;15.40;89.50
21805;DHT22;11064;47.102;15.452;2023-04-01T08:32:00;16.00;81.90
21805;DHT22;11064;47.102;15.452;2023-04-01T08:34:42;16.20;81.00
21805;DHT22;11064;47.102;15.452;2023-04-01T08:37:19;16.20;77.30
21805;DHT22;11064;47.102;15.452;2023-04-01T08:39:55;16.20;75.60
21805;DHT22;11064;47.102;15.452;2023-04-01T08:51:08;16.80;77.90
21805;DHT22;11064;47.102;15.452;2023-04-01T08:54:21;16.80;72.80
21805;DHT22;11064;47.102;15.452;2023-04-01T08:56:47;16.90;70.60
21805;DHT22;11064;47.102;15.452;2023-04-01T09:13:25;17.70;73.20
21805;DHT22;11064;47.102;15.452;2023-04-01T09:32:25;17.10;66.10
21805;DHT22;11064;47.102;15.452;2023-04-01T09:35:24;17.10;67.30
21805;DHT22;11064;47.102;15.452;2023-04-01T09:38:19;16.90;64.10
21805;DHT22;11064;47.102;15.452;2023-04-01T09:46:37;18.10;66.70
21805;DHT22;11064;47.102;15.452;2023-04-01T09:52:05;18.00;61.30
21805;DHT22;11064;47.102;15.452;2023-04-01T10:08:19;17.90;60.90
21805;DHT22;11064;47.102;15.452;2023-04-01T10:16:25;17.70;61.80
21805;DHT22;11064;47.102;15.452;2023-04-01T10:36:19;16.80;59.40
21805;DHT22;11064;47.102;15.452;2023-04-01T10:41:32;16.80;59.00
21805;DHT22;11064;47.102;15.452;2023-04-01T11:07:53;17.10;57.20
21805;DHT22;11064;47.102;15.452;2023-04-01T11:18:56;17.30;58.60
21805;DHT22;11064;47.102;15.452;2023-04-01T11:24:58;17.20;57.70
21805;DHT22;11064;47.102;15.452;2023-04-01T11:33:26;17.70;57.10
21805;DHT22;11064;47.102;15.452;2023-04-01T11:38:48;16.80;56.50
21805;DHT22;11064;47.102;15.452;2023-04-01T11:41:43;16.50;58.20
21805;DHT22;11064;47.102;15.452;2023-04-01T11:44:14;16.50;58.60
21805;DHT22;11064;47.102;15.452;2023-04-01T12:00:51;16.50;56.80
21805;DHT22;11064;47.102;15.452;2023-04-01T12:06:25;16.80;57.20
21805;DHT22;11064;47.102;15.452;2023-04-01T12:09:33;17.30;56.00
21805;DHT22;11064;47.102;15.452;2023-04-01T12:14:54;17.80;55.70
21805;DHT22;11064;47.102;15.452;2023-04-01T12:39:29;18.30;52.90
21805;DHT22;11064;47.102;15.452;2023-04-01T12:42:12;18.20;55.60
21805;DHT22;11064;47.102;15.452;2023-04-01T12:48:03;18.10;55.10
21805;DHT22;11064;47.102;15.452;2023-04-01T12:55:46;18.10;53.90
21805;DHT22;11064;47.102;15.452;2023-04-01T13:07:24;17.10;55.10
21805;DHT22;11064;47.102;15.452;2023-04-01T13:14:04;17.40;55.50
21805;DHT22;11064;47.102;15.452;2023-04-01T13:25:27;18.10;51.90
21805;DHT22;11064;47.102;15.452;2023-04-01T13:36:43;17.30;52.70
21805;DHT22;11064;47.102;15.452;2023-04-01T13:39:24;17.40;53.20
21805;DHT22;11064;47.102;15.452;2023-04-01T13:42:14;17.30;52.90
21805;DHT22;11064;47.102;15.452;2023-04-01T13:44:46;17.50;53.80
21805;DHT22;11064;47.102;15.452;2023-04-01T13:47:46;17.30;52.50
21805;DHT22;11064;47.102;15.452;2023-04-01T13:55:55;17.70;50.30
21805;DHT22;11064;47.102;15.452;2023-04-01T13:58:35;17.60;50.70
21805;DHT22;11064;47.102;15.452;2023-04-01T14:01:13;17.50;51.70
21805;DHT22;11064;47.102;15.452;2023-04-01T14:06:34;17.60;51.50
21805;DHT22;11064;47.102;15.452;2023-04-01T14:09:11;17.90;50.00
21805;DHT22;11064;47.102;15.452;2023-04-01T14:12:40;17.60;49.80
21805;DHT22;11064;47.102;15.452;2023-04-01T14:22:53;17.80;50.50
21805;DHT22;11064;47.102;15.452;2023-04-01T14:31:21;17.60;49.20
21805;DHT22;11064;47.102;15.452;2023-04-01T14:34:11;17.30;49.50
21805;DHT22;11064;47.102;15.452;2023-04-01T14:39:49;17.10;50.00
21805;DHT22;11064;47.102;15.452;2023-04-01T14:47:56;17.00;50.60
21805;DHT22;11064;47.102;15.452;2023-04-01T14:50:30;16.80;51.60
21805;DHT22;11064;47.102;15.452;2023-04-01T14:53:24;16.30;52.00
21805;DHT22;11064;47.102;15.452;2023-04-01T14:55:53;16.30;52.30
21805;DHT22;11064;47.102;15.452;2023-04-01T14:58:22;16.50;52.40
21805;DHT22;11064;47.102;15.452;2023-04-01T15:29:24;15.80;52.70
21805;DHT22;11064;47.102;15.452;2023-04-01T15:34:40;15.80;52.00
21805;DHT22;11064;47.102;15.452;2023-04-01T15:40:02;15.40;52.40
21805;DHT22;11064;47.102;15.452;2023-04-01T15:54:22;14.80;54.30
21805;DHT22;11064;47.102;15.452;2023-04-01T16:07:43;15.30;53.40
21805;DHT22;11064;47.102;15.452;2023-04-01T16:13:29;15.40;52.70
21805;DHT22;11064;47.102;15.452;2023-04-01T16:21:48;15.20;55.10
21805;DHT22;11064;47.102;15.452;2023-04-01T16:24:38;14.90;55.90
21805;DHT22;11064;47.102;15.452;2023-04-01T16:27:14;14.70;56.80
21805;DHT22;11064;47.102;15.452;2023-04-01T16:32:57;14.10;56.60
21805;DHT22;11064;47.102;15.452;2023-04-01T16:35:55;13.80;57.60
21805;DHT22;11064;47.102;15.452;2023-04-01T16:43:43;13.00;59.90
21805;DHT22;11064;47.102;15.452;2023-04-01T16:48:52;12.60;61.30
21805;DHT22;11064;47.102;15.452;2023-04-01T16:51:22;12.60;62.30
21805;DHT22;11064;47.102;15.452;2023-04-01T16:54:16;12.60;62.40
21805;DHT22;11064;47.102;15.452;2023-04-01T16:59:48;12.60;62.50
21805;DHT22;11064;47.102;15.452;2023-04-01T17:02:25;12.70;61.50
21805;DHT22;11064;47.102;15.452;2023-04-01T17:05:11;12.80;61.50
21805;DHT22;11064;47.102;15.452;2023-04-01T17:16:38;12.60;61.70
21805;DHT22;11064;47.102;15.452;2023-04-01T17:19:49;12.60;63.00
21805;DHT22;11064;47.102;15.452;2023-04-01T17:22:27;12.50;63.00
21805;DHT22;11064;47.102;15.452;2023-04-01T17:28:06;12.40;64.10
21805;DHT22;11064;47.102;15.452;2023-04-01T17:30:45;12.30;64.70
21805;DHT22;11064;47.102;15.452;2023-04-01T17:33:39;12.20;64.80
21805;DHT22;11064;47.102;15.452;2023-04-01T17:42:10;12.10;65.30
21805;DHT22;11064;47.102;15.452;2023-04-01T17:50:21;11.90;66.40
21805;DHT22;11064;47.102;15.452;2023-04-01T17:53:18;11.80;66.50
21805;DHT22;11064;47.102;15.452;2023-04-01T17:56:04;11.80;66.50
21805;DHT22;11064;47.102;15.452;2023-04-01T17:59:00;11.90;66.30
21805;DHT22;11064;47.102;15.452;2023-04-01T18:05:26;12.00;66.70
21805;DHT22;11064;47.102;15.452;2023-04-01T18:08:32;12.00;66.70
21805;DHT22;11064;47.102;15.452;2023-04-01T18:14:50;11.90;68.20
21805;DHT22;11064;47.102;15.452;2023-04-01T18:17:27;11.80;69.30
21805;DHT22;11064;47.102;15.452;2023-04-01T18:20:26;11.70;70.50
21805;DHT22;11064;47.102;15.452;2023-04-01T18:23:03;11.60;70.70
21805;DHT22;11064;47.102;15.452;2023-04-01T18:25:40;11.60;71.20
21805;DHT22;11064;47.102;15.452;2023-04-01T18:28:42;11.50;71.70
21805;DHT22;11064;47.102;15.452;2023-04-01T18:31:15;11.50;72.90
21805;DHT22;11064;47.102;15.452;2023-04-01T18:34:43;11.40;73.30
21805;DHT22;11064;47.102;15.452;2023-04-01T18:37:27;11.30;75.30
21805;DHT22;11064;47.102;15.452;2023-04-01T18:40:13;11.10;74.90
21805;DHT22;11064;47.102;15.452;2023-04-01T18:43:12;11.10;75.30
21805;DHT22;11064;47.102;15.452;2023-04-01T18:45:54;11.10;75.10
21805;DHT22;11064;47.102;15.452;2023-04-01T18:48:51;11.20;75.80
21805;DHT22;11064;47.102;15.452;2023-04-01T18:51:21;11.10;76.20
21805;DHT22;11064;47.102;15.452;2023-04-01T18:54:02;10.90;76.10
21805;DHT22;11064;47.102;15.452;2023-04-01T18:56:35;10.80;77.00
21805;DHT22;11064;47.102;15.452;2023-04-01T18:59:24;10.70;77.20
21805;DHT22;11064;47.102;15.452;2023-04-01T19:02:00;10.70;77.30
21805;DHT22;11064;47.102;15.452;2023-04-01T19:09:51;10.70;76.80
21805;DHT22;11064;47.102;15.452;2023-04-01T19:13:04;10.50;77.40
21805;DHT22;11064;47.102;15.452;2023-04-01T19:15:25;10.50;78.10
21805;DHT22;11064;47.102;15.452;2023-04-01T19:18:21;10.40;79.00
21805;DHT22;11064;47.102;15.452;2023-04-01T19:26:58;10.30;79.70
21805;DHT22;11064;47.102;15.452;2023-04-01T19:32:42;10.40;80.30
21805;DHT22;11064;47.102;15.452;2023-04-01T19:35:26;10.30;79.20
21805;DHT22;11064;47.102;15.452;2023-04-01T19:38:04;10.30;80.00
21805;DHT22;11064;47.102;15.452;2023-04-01T19:40:46;10.20;80.10
21805;DHT22;11064;47.102;15.452;2023-04-01T19:43:17;10.20;80.40
21805;DHT22;11064;47.102;15.452;2023-04-01T19:48:55;10.10;80.50
21805;DHT22;11064;47.102;15.452;2023-04-01T19:51:51;10.20;80.30
21805;DHT22;11064;47.102;15.452;2023-04-01T19:54:44;10.20;80.50
21805;DHT22;11064;47.102;15.452;2023-04-01T20:02:50;10.30;79.70
21805;DHT22;11064;47.102;15.452;2023-04-01T20:25:58;9.90;85.10
21805;DHT22;11064;47.102;15.452;2023-04-01T20:28:42;9.90;85.30
21805;DHT22;11064;47.102;15.452;2023-04-01T20:31:24;9.90;83.60
21805;DHT22;11064;47.102;15.452;2023-04-01T20:37:00;9.80;82.90
21805;DHT22;11064;47.102;15.452;2023-04-01T20:51:15;9.60;85.30
21805;DHT22;11064;47.102;15.452;2023-04-01T20:59:19;9.60;85.00
21805;DHT22;11064;47.102;15.452;2023-04-01T21:07:20;9.60;90.50
21805;DHT22;11064;47.102;15.452;2023-04-01T21:10:11;9.60;91.50
21805;DHT22;11064;47.102;15.452;2023-04-01T21:25:17;9.20;94.90
21805;DHT22;11064;47.102;15.452;2023-04-01T21:36:51;9.20;98.70
21805;DHT22;11064;47.102;15.452;2023-04-01T21:42:11;9.20;99.90
21805;DHT22;11064;47.102;15.452;2023-04-01T21:48:01;9.20;99.90
21805;DHT22;11064;47.102;15.452;2023-04-01T21:53:38;9.10;99.90
